createdAt,value
2022-08-03T00:02:54.374Z,101291.59
2022-08-03T00:06:04.579Z,101279.84
2022-08-03T00:09:11.206Z,101277.09
2022-08-03T00:12:16.801Z,101273.25
2022-08-03T00:15:22.601Z,101265.69
2022-08-03T00:18:29.250Z,101264.56
2022-08-03T00:21:34.853Z,101261.03
2022-08-03T00:24:40.634Z,101270.72
2022-08-03T00:27:46.215Z,101277.25
2022-08-03T00:30:56.126Z,101275.66
2022-08-03T00:34:03.385Z,101282.22
2022-08-03T00:37:09.923Z,101277.25
2022-08-03T00:40:17.935Z,101281.56
2022-08-03T00:43:28.060Z,101277.13
2022-08-03T00:46:33.954Z,101281.09
2022-08-03T00:49:41.407Z,101282.16
2022-08-03T00:52:47.869Z,101287.78
2022-08-03T00:55:53.474Z,101279.19
2022-08-03T00:58:59.698Z,101276.69
2022-08-03T01:02:05.445Z,101270.47
2022-08-03T01:05:11.433Z,101265.03
2022-08-03T01:08:31.801Z,101267.59
2022-08-03T01:12:00.713Z,101272.19
2022-08-03T01:15:43.448Z,101261.22
2022-08-03T01:19:03.685Z,101249.84
2022-08-03T01:23:01.132Z,101263.72
2022-08-03T01:26:12.488Z,101252.19
2022-08-03T01:29:17.899Z,101258.41
2022-08-03T01:32:58.119Z,101254.78
2022-08-03T01:36:11.884Z,101246.88
2022-08-03T01:39:19.677Z,101252.06
2022-08-03T01:42:27.731Z,101245.41
2022-08-03T01:45:34.777Z,101246.75
2022-08-03T01:48:43.531Z,101247.09
2022-08-03T01:51:58.401Z,101247.94
2022-08-03T01:55:12.608Z,101246.16
2022-08-03T01:58:22.218Z,101242.31
2022-08-03T02:02:31.987Z,101242.88
2022-08-03T02:04:58.018Z,101237.06
2022-08-03T02:08:05.577Z,101232.59
2022-08-03T02:11:12.728Z,101237.28
2022-08-03T02:14:20.874Z,101239.06
2022-08-03T02:17:39.249Z,101244.31
2022-08-03T02:20:47.701Z,101242.84
2022-08-03T02:23:53.503Z,101236.09
2022-08-03T02:27:00.136Z,101239.78
2022-08-03T02:30:11.155Z,101240.34
2022-08-03T02:33:27.431Z,101237.03
2022-08-03T02:36:38.077Z,101245.06
2022-08-03T02:39:45.400Z,101233.78
2022-08-03T02:42:55.565Z,101234.13
2022-08-03T02:46:01.632Z,101229.47
2022-08-03T02:49:49.759Z,101231.19
2022-08-03T02:52:36.181Z,101225.13
2022-08-03T02:55:45.840Z,101226.03
2022-08-03T02:58:53.503Z,101222.97
2022-08-03T03:02:00.824Z,101231.75
2022-08-03T03:05:52.990Z,101228.97
2022-08-03T03:08:34.005Z,101229.66
2022-08-03T03:11:41.915Z,101237.81
2022-08-03T03:14:47.612Z,101229.03
2022-08-03T03:17:54.032Z,101228.94
2022-08-03T03:21:01.695Z,101227.16
2022-08-03T03:24:09.612Z,101221.06
2022-08-03T03:27:16.653Z,101225.13
2022-08-03T03:30:22.992Z,101220.31
2022-08-03T03:33:28.893Z,101222.19
2022-08-03T03:36:34.592Z,101224.91
2022-08-03T03:39:40.137Z,101229.00
2022-08-03T03:42:46.075Z,101223.50
2022-08-03T03:45:54.135Z,101226.13
2022-08-03T03:48:59.704Z,101230.34
2022-08-03T03:52:05.360Z,101233.84
2022-08-03T03:55:11.032Z,101233.97
2022-08-03T03:58:17.373Z,101233.84
2022-08-03T04:01:23.495Z,101230.06
2022-08-03T04:04:47.285Z,101233.06
2022-08-03T04:08:19.732Z,101235.25
2022-08-03T04:11:32.167Z,101234.19
2022-08-03T04:14:39.607Z,101238.09
2022-08-03T04:17:47.202Z,101240.94
2022-08-03T04:20:54.136Z,101238.91
2022-08-03T04:24:03.972Z,101240.69
2022-08-03T04:27:13.270Z,101246.53
2022-08-03T04:30:19.851Z,101248.38
2022-08-03T04:33:29.475Z,101250.63
2022-08-03T04:36:48.641Z,101255.44
2022-08-03T04:39:58.295Z,101249.16
2022-08-03T04:43:05.721Z,101253.72
2022-08-03T04:46:12.463Z,101255.72
2022-08-03T04:49:20.338Z,101256.31
2022-08-03T04:52:26.118Z,101258.81
2022-08-03T04:55:32.901Z,101264.72
2022-08-03T04:58:38.869Z,101273.22
2022-08-03T05:01:44.512Z,101267.28
2022-08-03T05:04:50.746Z,101279.78
2022-08-03T05:07:56.549Z,101274.94
2022-08-03T05:11:02.335Z,101274.25
2022-08-03T05:14:07.612Z,101278.69
2022-08-03T05:17:13.003Z,101280.16
2022-08-03T05:20:18.985Z,101279.03
2022-08-03T05:23:24.420Z,101282.50
2022-08-03T05:26:29.980Z,101279.31
2022-08-03T05:29:35.937Z,101284.34
2022-08-03T05:32:41.471Z,101290.66
2022-08-03T05:35:55.643Z,101292.63
2022-08-03T05:39:09.666Z,101278.97
2022-08-03T05:42:17.547Z,101287.97
2022-08-03T05:45:28.156Z,101285.09
2022-08-03T05:48:33.860Z,101290.19
2022-08-03T05:51:39.550Z,101287.47
2022-08-03T05:54:56.469Z,101293.72
2022-08-03T05:58:04.430Z,101294.81
2022-08-03T06:01:10.822Z,101300.94
2022-08-03T06:04:16.794Z,101303.81
2022-08-03T06:07:22.520Z,101308.81
2022-08-03T06:10:37.133Z,101314.59
2022-08-03T06:13:44.653Z,101321.31
2022-08-03T06:16:50.034Z,101312.38
2022-08-03T06:19:55.675Z,101320.53
2022-08-03T06:23:01.531Z,101330.47
2022-08-03T06:26:07.309Z,101326.78
2022-08-03T06:29:13.178Z,101333.81
2022-08-03T06:32:19.369Z,101343.09
2022-08-03T06:35:28.172Z,101339.81
2022-08-03T06:38:33.925Z,101339.59
2022-08-03T06:41:44.558Z,101346.63
2022-08-03T06:44:51.841Z,101345.59
2022-08-03T06:48:05.864Z,101342.03
2022-08-03T06:51:11.946Z,101343.28
2022-08-03T06:54:18.039Z,101339.63
2022-08-03T06:57:23.789Z,101351.13
2022-08-03T07:00:29.820Z,101357.00
2022-08-03T07:03:35.501Z,101353.94
2022-08-03T07:06:41.737Z,101358.09
2022-08-03T07:09:56.753Z,101357.81
2022-08-03T07:13:05.240Z,101361.50
2022-08-03T07:16:10.800Z,101356.28
2022-08-03T07:19:16.864Z,101366.47
2022-08-03T07:22:22.453Z,101370.88
2022-08-03T07:25:28.299Z,101362.09
2022-08-03T07:28:34.467Z,101373.13
2022-08-03T07:31:40.499Z,101365.38
2022-08-03T07:34:46.197Z,101359.00
2022-08-03T07:37:54.387Z,101365.81
2022-08-03T07:41:00.510Z,101364.59
2022-08-03T07:44:06.224Z,101363.38
2022-08-03T07:47:22.522Z,101360.72
2022-08-03T07:50:28.932Z,101357.00
2022-08-03T07:53:37.837Z,101357.78
2022-08-03T07:56:53.789Z,101361.91
2022-08-03T08:00:02.209Z,101363.97
2022-08-03T08:03:17.488Z,101362.75
2022-08-03T08:06:23.288Z,101367.91
2022-08-03T08:09:28.835Z,101368.84
2022-08-03T08:12:35.327Z,101368.25
2022-08-03T08:15:43.691Z,101364.00
2022-08-03T08:18:49.779Z,101372.84
2022-08-03T08:22:02.408Z,101372.28
2022-08-03T08:25:08.822Z,101370.19
2022-08-03T08:28:31.871Z,101367.06
2022-08-03T08:31:39.616Z,101360.41
2022-08-03T08:34:45.294Z,101351.34
2022-08-03T08:37:51.472Z,101361.63
2022-08-03T08:40:57.350Z,101360.91
2022-08-03T08:44:04.078Z,101358.56
2022-08-03T08:47:10.725Z,101357.03
2022-08-03T08:50:27.807Z,101364.53
2022-08-03T08:53:37.661Z,101362.00
2022-08-03T08:56:45.275Z,101358.69
2022-08-03T08:59:53.479Z,101352.56
2022-08-03T09:03:03.062Z,101349.34
2022-08-03T09:06:08.898Z,101355.44
2022-08-03T09:10:08.207Z,101358.63
2022-08-03T09:12:45.580Z,101360.22
2022-08-03T09:16:11.650Z,101356.75
2022-08-03T09:19:17.316Z,101367.06
2022-08-03T09:22:22.954Z,101357.72
2022-08-03T09:25:40.569Z,101353.38
2022-08-03T09:28:59.943Z,101359.44
2022-08-03T09:32:11.644Z,101356.59
2022-08-03T09:35:23.783Z,101352.97
2022-08-03T09:39:01.501Z,101346.59
2022-08-03T09:42:18.887Z,101351.91
2022-08-03T09:45:30.447Z,101342.94
2022-08-03T09:48:38.032Z,101342.03
2022-08-03T09:52:31.737Z,101347.22
2022-08-03T09:56:30.746Z,101347.22
2022-08-03T09:58:47.692Z,101341.28
2022-08-03T10:01:54.503Z,101341.56
2022-08-03T10:05:00.267Z,101335.28
2022-08-03T10:08:15.679Z,101338.72
2022-08-03T10:11:40.851Z,101327.94
2022-08-03T10:14:47.384Z,101323.13
2022-08-03T10:17:52.783Z,101325.47
2022-08-03T10:21:08.978Z,101320.25
2022-08-03T10:24:17.526Z,101317.41
2022-08-03T10:27:24.925Z,101311.22
2022-08-03T10:30:32.711Z,101310.81
2022-08-03T10:33:51.719Z,101309.78
2022-08-03T10:37:00.421Z,101308.59
2022-08-03T10:40:08.844Z,101313.63
2022-08-03T10:43:20.199Z,101309.59
2022-08-03T10:46:28.062Z,101306.03
2022-08-03T10:49:35.638Z,101305.66
2022-08-03T10:53:39.376Z,101284.56
2022-08-03T10:57:13.638Z,101291.50
2022-08-03T11:00:26.240Z,101288.91
2022-08-03T11:03:33.185Z,101294.13
2022-08-03T11:06:38.841Z,101288.56
2022-08-03T11:09:49.384Z,101286.00
2022-08-03T11:13:07.716Z,101277.34
2022-08-03T11:16:22.458Z,101286.84
2022-08-03T11:19:57.880Z,101274.28
2022-08-03T11:23:04.281Z,101266.22
2022-08-03T11:26:13.567Z,101282.72
2022-08-03T11:29:29.864Z,101270.47
2022-08-03T11:32:38.655Z,101266.94
2022-08-03T11:36:04.452Z,101277.03
2022-08-03T11:39:16.666Z,101265.31
2022-08-03T11:42:22.603Z,101274.97
2022-08-03T11:45:28.324Z,101264.94
2022-08-03T11:48:38.405Z,101270.56
2022-08-03T11:51:44.986Z,101263.44
2022-08-03T11:54:56.626Z,101259.44
2022-08-03T11:59:12.868Z,101257.53
2022-08-03T12:01:28.323Z,101248.81
2022-08-03T12:04:54.839Z,101253.28
2022-08-03T12:08:04.964Z,101249.13
2022-08-03T12:11:14.122Z,101246.66
2022-08-03T12:14:49.164Z,101233.41
2022-08-03T12:17:45.920Z,101237.75
2022-08-03T12:20:54.820Z,101232.09
2022-08-03T12:24:02.574Z,101236.41
2022-08-03T12:27:07.870Z,101235.66
2022-08-03T12:30:13.803Z,101240.22
2022-08-03T12:33:27.639Z,101227.75
2022-08-03T12:36:35.556Z,101233.53
2022-08-03T12:40:01.722Z,101227.72
2022-08-03T12:43:16.310Z,101227.88
2022-08-03T12:46:21.563Z,101232.84
2022-08-03T12:49:30.356Z,101235.50
2022-08-03T12:52:45.286Z,101228.50
2022-08-03T12:56:05.025Z,101234.72
2022-08-03T12:59:25.447Z,101231.03
2022-08-03T13:02:38.498Z,101223.38
2022-08-03T13:05:46.118Z,101218.56
2022-08-03T13:09:12.149Z,101219.63
2022-08-03T13:12:20.915Z,101218.28
2022-08-03T13:15:28.463Z,101217.94
2022-08-03T13:18:40.067Z,101212.69
2022-08-03T13:21:53.577Z,101208.63
2022-08-03T13:25:09.902Z,101206.28
2022-08-03T13:28:15.415Z,101200.31
2022-08-03T13:31:21.598Z,101202.03
2022-08-03T13:34:27.327Z,101201.72
2022-08-03T13:37:32.927Z,101200.41
2022-08-03T13:40:41.639Z,101194.28
2022-08-03T13:43:47.304Z,101186.22
2022-08-03T13:46:52.899Z,101191.28
2022-08-03T13:50:01.914Z,101189.13
2022-08-03T13:53:08.231Z,101187.97
2022-08-03T13:56:13.575Z,101172.50
2022-08-03T13:59:20.660Z,101175.03
2022-08-03T14:02:26.623Z,101169.84
2022-08-03T14:05:32.532Z,101165.25
2022-08-03T14:08:38.290Z,101162.94
2022-08-03T14:12:05.232Z,101168.06
2022-08-03T14:15:13.336Z,101156.56
2022-08-03T14:18:28.915Z,101160.59
2022-08-03T14:21:39.577Z,101157.75
2022-08-03T14:24:45.421Z,101152.69
2022-08-03T14:27:51.625Z,101144.38
2022-08-03T14:30:57.471Z,101137.38
2022-08-03T14:34:03.174Z,101141.72
2022-08-03T14:37:08.924Z,101142.28
2022-08-03T14:40:14.432Z,101142.19
2022-08-03T14:43:22.972Z,101132.63
2022-08-03T14:46:28.615Z,101132.31
2022-08-03T14:50:36.345Z,101132.38
2022-08-03T14:52:59.805Z,101128.03
2022-08-03T14:56:11.167Z,101128.66
2022-08-03T14:59:16.935Z,101117.84
2022-08-03T15:02:23.785Z,101114.41
2022-08-03T15:05:29.906Z,101111.63
2022-08-03T15:08:35.558Z,101118.16
2022-08-03T15:11:41.858Z,101114.16
2022-08-03T15:14:47.550Z,101110.53
2022-08-03T15:17:59.717Z,101103.09
2022-08-03T15:21:07.135Z,101093.28
2022-08-03T15:24:26.832Z,101090.91
2022-08-03T15:27:32.732Z,101088.44
2022-08-03T15:30:38.856Z,101089.66
2022-08-03T15:33:44.601Z,101082.13
2022-08-03T15:36:50.250Z,101082.91
2022-08-03T15:39:58.163Z,101081.66
2022-08-03T15:43:05.805Z,101085.28
2022-08-03T15:49:37.289Z,101079.84
2022-08-03T15:52:42.930Z,101072.63
2022-08-03T15:55:48.503Z,101074.72
2022-08-03T15:59:09.239Z,101068.38
2022-08-03T16:02:19.807Z,101063.66
2022-08-03T16:05:25.315Z,101062.50
2022-08-03T16:08:31.696Z,101056.97
2022-08-03T16:11:37.123Z,101061.69
2022-08-03T16:14:51.888Z,101053.34
2022-08-03T16:17:59.103Z,101051.00
2022-08-03T16:21:04.874Z,101050.63
2022-08-03T16:24:17.341Z,101051.00
2022-08-03T16:27:58.161Z,101047.44
2022-08-03T16:30:58.994Z,101052.19
2022-08-03T16:34:04.959Z,101047.06
2022-08-03T16:37:36.521Z,101045.09
2022-08-03T16:40:37.577Z,101050.19
2022-08-03T16:43:43.130Z,101049.72
2022-08-03T16:46:49.038Z,101038.69
2022-08-03T16:49:56.550Z,101043.78
2022-08-03T16:53:09.080Z,101040.84
2022-08-03T16:56:15.111Z,101035.75
2022-08-03T16:59:20.149Z,101042.00
2022-08-03T17:02:48.374Z,101039.81
2022-08-03T17:05:54.269Z,101038.47
2022-08-03T17:09:11.511Z,101041.44
2022-08-03T17:12:17.256Z,101031.00
2022-08-03T17:15:38.384Z,101033.78
2022-08-03T17:18:57.125Z,101033.53
2022-08-03T17:22:13.465Z,101025.50
2022-08-03T17:26:01.736Z,101033.34
2022-08-03T17:28:57.438Z,101039.00
2022-08-03T17:32:09.244Z,101027.34
2022-08-03T17:35:15.809Z,101036.41
2022-08-03T17:38:26.755Z,101040.41
2022-08-03T17:41:38.383Z,101043.72
2022-08-03T17:44:58.072Z,101039.94
2022-08-03T17:48:04.639Z,101054.19
2022-08-03T17:51:24.360Z,101056.19
2022-08-03T17:55:57.601Z,101053.28
2022-08-03T17:58:25.922Z,101061.50
2022-08-03T18:02:22.290Z,101061.13
2022-08-03T18:06:10.956Z,101056.06
2022-08-03T18:09:05.131Z,101052.94
2022-08-03T18:12:34.947Z,101054.53
2022-08-03T18:15:47.644Z,101055.03
2022-08-03T18:18:57.371Z,101055.22
2022-08-03T18:22:05.231Z,101056.63
2022-08-03T18:25:11.096Z,101058.16
2022-08-03T18:32:02.244Z,101059.84
2022-08-03T18:35:13.753Z,101061.41
2022-08-03T18:38:20.897Z,101051.50
2022-08-03T18:41:32.257Z,101061.56
2022-08-03T18:44:54.095Z,101058.81
2022-08-03T18:48:32.815Z,101053.56
2022-08-03T18:51:42.960Z,101057.78
2022-08-03T18:55:20.980Z,101058.44
2022-08-03T18:58:52.550Z,101063.34
2022-08-03T19:02:05.869Z,101064.28
2022-08-03T19:05:19.566Z,101061.69
2022-08-03T19:08:49.679Z,101065.88
2022-08-03T19:12:28.316Z,101066.75
2022-08-03T19:15:36.567Z,101071.16
2022-08-03T19:18:52.062Z,101069.44
2022-08-03T19:21:58.692Z,101078.22
2022-08-03T19:25:07.126Z,101073.09
2022-08-03T19:28:18.535Z,101077.63
2022-08-03T19:31:31.220Z,101084.34
2022-08-03T19:34:40.935Z,101089.47
2022-08-03T19:37:52.901Z,101092.31
2022-08-03T19:41:03.762Z,101093.91
2022-08-03T19:44:19.993Z,101088.97
2022-08-03T19:47:34.182Z,101088.34
2022-08-03T19:50:44.377Z,101095.78
2022-08-03T19:53:52.397Z,101102.94
2022-08-03T19:57:01.907Z,101108.00
2022-08-03T20:00:12.641Z,101102.22
2022-08-03T20:03:21.900Z,101098.91
2022-08-03T20:06:29.274Z,101103.81
2022-08-03T20:09:36.325Z,101110.63
2022-08-03T20:12:50.650Z,101109.72
2022-08-03T20:15:56.598Z,101107.25
2022-08-03T20:19:02.701Z,101109.28
2022-08-03T20:22:27.847Z,101107.25
2022-08-03T20:25:39.540Z,101103.53
2022-08-03T20:29:10.000Z,101104.19
2022-08-03T20:32:18.226Z,101112.69
2022-08-03T20:35:23.575Z,101116.59
2022-08-03T20:38:29.135Z,101116.63
2022-08-03T20:41:35.965Z,101115.84
2022-08-03T20:44:42.037Z,101110.41
2022-08-03T20:47:54.265Z,101111.69
2022-08-03T20:50:59.986Z,101102.94
2022-08-03T20:54:22.719Z,101115.69
2022-08-03T20:57:33.515Z,101117.19
2022-08-03T21:00:38.925Z,101127.63
2022-08-03T21:03:55.505Z,101122.47
2022-08-03T21:07:16.628Z,101120.19
2022-08-03T21:10:28.610Z,101125.22
2022-08-03T21:13:04.889Z,101059.53
2022-08-03T21:13:52.390Z,101128.91
2022-08-03T21:16:59.385Z,101135.63
2022-08-03T21:20:11.244Z,101132.72
2022-08-03T21:23:40.008Z,101140.03
2022-08-03T21:26:49.748Z,101140.50
2022-08-03T21:29:55.316Z,101141.28
2022-08-03T21:33:01.299Z,101145.66
2022-08-03T21:36:07.795Z,101145.44
2022-08-03T21:39:13.428Z,101154.59
2022-08-03T21:42:20.516Z,101150.78
2022-08-03T21:45:25.989Z,101159.41
2022-08-03T21:48:41.899Z,101159.47
2022-08-03T21:51:50.117Z,101155.28
2022-08-03T21:54:59.037Z,101173.16
2022-08-03T21:58:06.239Z,101171.31
2022-08-03T22:01:13.979Z,101169.84
2022-08-03T22:04:55.248Z,101170.63
2022-08-03T22:07:47.780Z,101181.06
2022-08-03T22:10:53.157Z,101184.78
2022-08-03T22:14:02.116Z,101169.31
2022-08-03T22:17:08.071Z,101177.50
2022-08-03T22:20:15.321Z,101179.03
2022-08-03T22:23:23.943Z,101186.75
2022-08-03T22:26:35.365Z,101186.28
2022-08-03T22:29:43.681Z,101185.91
2022-08-03T22:32:53.550Z,101182.66
2022-08-03T22:36:00.644Z,101185.84
2022-08-03T22:39:06.421Z,101185.00
2022-08-03T22:42:13.358Z,101192.59
2022-08-03T22:46:07.945Z,101198.00
2022-08-03T22:48:48.369Z,101199.75
2022-08-03T22:51:54.656Z,101199.47
2022-08-03T22:55:05.355Z,101194.16
2022-08-03T22:58:10.813Z,101198.09
2022-08-03T23:01:21.022Z,101205.72
2022-08-03T23:04:29.297Z,101209.03
2022-08-03T23:07:38.614Z,101201.44
2022-08-03T23:10:47.697Z,101204.81
2022-08-03T23:13:56.127Z,101206.75
2022-08-03T23:17:04.931Z,101210.09
2022-08-03T23:20:10.766Z,101214.53
2022-08-03T23:23:16.682Z,101216.91
2022-08-03T23:26:26.617Z,101215.97
2022-08-03T23:29:36.529Z,101218.47
2022-08-03T23:32:43.816Z,101217.16
2022-08-03T23:36:20.177Z,101216.19
2022-08-03T23:39:29.067Z,101217.53
2022-08-03T23:42:43.074Z,101215.50
2022-08-03T23:45:49.819Z,101216.16
2022-08-03T23:49:00.137Z,101208.47
2022-08-03T23:52:14.785Z,101207.84
2022-08-03T23:55:43.330Z,101206.41
2022-08-03T23:59:21.993Z,101205.97
